createdAt,value
2022-11-10T00:01:20.436Z,2.70
2022-11-10T00:03:50.552Z,2.70
2022-11-10T00:06:19.118Z,2.90
2022-11-10T00:08:47.617Z,2.78
2022-11-10T00:11:16.165Z,3.08
2022-11-10T00:14:07.779Z,3.13
2022-11-10T00:16:53.333Z,2.85
2022-11-10T00:19:21.898Z,3.10
2022-11-10T00:21:50.231Z,3.15
2022-11-10T00:24:18.632Z,3.10
2022-11-10T00:26:46.969Z,3.42
2022-11-10T00:29:16.874Z,3.30
2022-11-10T00:31:45.387Z,3.28
2022-11-10T00:34:15.757Z,3.08
2022-11-10T00:36:44.254Z,2.70
2022-11-10T00:39:13.083Z,3.58
2022-11-10T00:41:42.495Z,3.00
2022-11-10T00:44:10.918Z,2.90
2022-11-10T00:46:40.725Z,2.80
2022-11-10T00:49:09.190Z,2.80
2022-11-10T00:51:37.648Z,2.70
2022-11-10T00:54:06.015Z,2.70
2022-11-10T00:56:34.672Z,2.63
2022-11-10T00:59:03.075Z,2.40
2022-11-10T01:01:31.635Z,2.80
2022-11-10T01:04:01.770Z,2.78
2022-11-10T01:06:30.192Z,2.60
2022-11-10T01:08:58.616Z,2.83
2022-11-10T01:11:29.225Z,2.70
2022-11-10T01:13:58.671Z,2.70
2022-11-10T01:16:32.814Z,2.50
2022-11-10T01:19:04.468Z,2.88
2022-11-10T01:21:32.866Z,2.40
2022-11-10T01:24:01.514Z,2.50
2022-11-10T01:26:29.834Z,2.53
2022-11-10T01:28:59.008Z,2.20
2022-11-10T01:31:27.390Z,2.33
2022-11-10T01:33:55.710Z,2.33
2022-11-10T01:36:25.489Z,2.33
2022-11-10T01:38:53.801Z,2.78
2022-11-10T01:41:22.262Z,2.40
2022-11-10T01:43:50.678Z,2.80
2022-11-10T01:46:19.093Z,2.30
2022-11-10T01:48:49.267Z,2.22
2022-11-10T01:51:22.008Z,2.40
2022-11-10T01:53:57.452Z,2.47
2022-11-10T01:56:27.604Z,2.17
2022-11-10T01:58:59.911Z,2.30
2022-11-10T02:01:28.513Z,2.78
2022-11-10T02:03:59.039Z,2.58
2022-11-10T02:06:31.035Z,2.60
2022-11-10T02:09:00.786Z,2.50
2022-11-10T02:11:29.706Z,2.40
2022-11-10T02:13:58.633Z,2.40
2022-11-10T02:16:27.163Z,2.70
2022-11-10T02:18:55.464Z,2.80
2022-11-10T02:21:25.614Z,2.58
2022-11-10T02:23:55.120Z,2.60
2022-11-10T02:26:26.577Z,2.22
2022-11-10T02:28:54.905Z,2.13
2022-11-10T02:31:23.326Z,2.63
2022-11-10T02:33:51.671Z,2.38
2022-11-10T02:36:20.009Z,2.25
2022-11-10T02:38:49.816Z,2.60
2022-11-10T02:41:18.109Z,2.10
2022-11-10T02:43:46.659Z,2.25
2022-11-10T02:46:14.972Z,2.20
2022-11-10T02:48:43.315Z,2.78
2022-11-10T02:51:11.656Z,2.45
2022-11-10T02:53:40.022Z,2.50
2022-11-10T02:56:10.139Z,2.55
2022-11-10T02:58:38.405Z,2.47
2022-11-10T03:01:07.960Z,2.58
2022-11-10T03:03:36.701Z,2.75
2022-11-10T03:06:05.286Z,2.60
2022-11-10T03:08:33.548Z,2.35
2022-11-10T03:11:01.862Z,2.40
2022-11-10T03:13:45.268Z,2.63
2022-11-10T03:16:20.173Z,2.55
2022-11-10T03:18:48.453Z,2.63
2022-11-10T03:21:16.893Z,2.63
2022-11-10T03:23:45.243Z,2.30
2022-11-10T03:26:14.483Z,2.20
2022-11-10T03:28:44.319Z,2.35
2022-11-10T03:31:12.583Z,2.00
2022-11-10T03:33:40.835Z,2.25
2022-11-10T03:36:09.556Z,2.47
2022-11-10T03:38:37.871Z,2.35
2022-11-10T03:41:21.817Z,2.20
2022-11-10T03:43:51.612Z,2.47
2022-11-10T03:46:20.382Z,2.40
2022-11-10T03:48:53.327Z,2.35
2022-11-10T03:51:23.037Z,2.28
2022-11-10T03:53:51.828Z,2.13
2022-11-10T03:56:20.422Z,1.90
2022-11-10T03:58:49.176Z,2.15
2022-11-10T04:01:19.008Z,1.95
2022-11-10T04:03:51.253Z,2.22
2022-11-10T04:06:37.776Z,3.85
2022-11-10T04:09:06.942Z,3.80
2022-11-10T04:11:52.676Z,4.03
2022-11-10T04:14:38.536Z,3.63
2022-11-10T04:17:08.468Z,4.32
2022-11-10T04:19:36.943Z,3.80
2022-11-10T04:22:05.269Z,4.03
2022-11-10T04:24:33.589Z,4.22
2022-11-10T04:27:02.759Z,4.15
2022-11-10T04:29:31.064Z,4.30
2022-11-10T04:31:59.353Z,4.37
2022-11-10T04:34:29.058Z,4.40
2022-11-10T04:36:57.600Z,4.68
2022-11-10T04:39:25.908Z,4.75
2022-11-10T04:41:56.114Z,4.55
2022-11-10T04:44:28.058Z,4.53
2022-11-10T04:46:56.430Z,4.80
2022-11-10T04:49:25.294Z,5.47
2022-11-10T04:51:55.044Z,5.63
2022-11-10T04:54:23.431Z,5.82
2022-11-10T04:56:51.808Z,4.95
2022-11-10T04:59:20.228Z,4.57
2022-11-10T05:01:48.523Z,4.90
2022-11-10T05:04:16.854Z,4.60
2022-11-10T05:06:45.272Z,4.40
2022-11-10T05:09:15.059Z,5.07
2022-11-10T05:11:43.414Z,4.90
2022-11-10T05:14:11.888Z,4.30
2022-11-10T05:16:40.171Z,4.13
2022-11-10T05:19:09.319Z,4.30
2022-11-10T05:21:37.618Z,4.17
2022-11-10T05:24:06.324Z,4.50
2022-11-10T05:26:36.064Z,4.22
2022-11-10T05:29:04.385Z,4.17
2022-11-10T05:31:32.933Z,4.10
2022-11-10T05:34:01.259Z,3.72
2022-11-10T05:36:29.574Z,4.10
2022-11-10T05:38:57.892Z,3.80
2022-11-10T05:41:26.180Z,3.70
2022-11-10T05:43:55.873Z,3.90
2022-11-10T05:46:24.167Z,3.73
2022-11-10T05:48:52.466Z,3.33
2022-11-10T05:51:20.801Z,3.78
2022-11-10T05:53:49.138Z,3.92
2022-11-10T05:56:17.426Z,3.50
2022-11-10T05:58:45.768Z,3.40
2022-11-10T06:01:15.561Z,2.97
2022-11-10T06:03:44.020Z,3.08
2022-11-10T06:06:12.369Z,2.88
2022-11-10T06:08:40.771Z,2.90
2022-11-10T06:11:09.155Z,3.00
2022-11-10T06:13:37.469Z,3.10
2022-11-10T06:16:06.322Z,3.13
2022-11-10T06:18:36.001Z,2.90
2022-11-10T06:21:04.302Z,3.25
2022-11-10T06:23:32.593Z,3.00
2022-11-10T06:26:00.966Z,3.03
2022-11-10T06:28:29.323Z,3.20
2022-11-10T06:30:59.218Z,3.03
2022-11-10T06:33:27.585Z,3.10
2022-11-10T06:35:57.321Z,3.13
2022-11-10T06:38:25.653Z,3.20
2022-11-10T06:40:53.955Z,3.10
2022-11-10T06:43:22.488Z,3.00
2022-11-10T06:45:51.009Z,2.93
2022-11-10T06:48:19.594Z,2.80
2022-11-10T06:50:47.966Z,2.80
2022-11-10T06:53:21.720Z,2.80
2022-11-10T06:55:52.656Z,2.65
2022-11-10T06:58:21.017Z,2.77
2022-11-10T07:00:49.430Z,3.03
2022-11-10T07:03:17.991Z,2.42
2022-11-10T07:05:46.315Z,2.50
2022-11-10T07:08:16.976Z,2.53
2022-11-10T07:10:52.298Z,2.40
2022-11-10T07:13:21.326Z,2.40
2022-11-10T07:15:49.895Z,2.33
2022-11-10T07:18:18.208Z,2.30
2022-11-10T07:20:47.250Z,2.28
2022-11-10T07:23:15.546Z,2.15
2022-11-10T07:25:43.861Z,2.45
2022-11-10T07:28:14.036Z,2.20
2022-11-10T07:30:42.355Z,2.30
2022-11-10T07:33:13.281Z,2.13
2022-11-10T07:35:42.179Z,2.33
2022-11-10T07:38:12.716Z,1.90
2022-11-10T07:40:41.193Z,2.20
2022-11-10T07:43:09.551Z,1.90
2022-11-10T07:45:39.408Z,1.88
2022-11-10T07:48:08.361Z,2.10
2022-11-10T07:50:36.690Z,2.22
2022-11-10T07:53:06.817Z,2.00
2022-11-10T07:55:35.321Z,2.13
2022-11-10T07:58:03.631Z,2.03
2022-11-10T08:00:32.365Z,2.38
2022-11-10T08:03:06.128Z,2.47
2022-11-10T08:05:35.575Z,3.53
2022-11-10T08:08:04.124Z,4.27
2022-11-10T08:10:33.499Z,4.35
2022-11-10T08:13:04.031Z,3.83
2022-11-10T08:15:34.302Z,3.92
2022-11-10T08:18:04.204Z,3.87
2022-11-10T08:20:34.466Z,4.00
2022-11-10T08:23:04.842Z,3.50
2022-11-10T08:25:35.597Z,3.45
2022-11-10T08:28:06.220Z,3.10
2022-11-10T08:30:35.947Z,2.53
2022-11-10T08:33:06.131Z,2.30
2022-11-10T08:35:38.800Z,2.55
2022-11-10T08:38:09.665Z,2.50
2022-11-10T08:40:38.730Z,2.78
2022-11-10T08:43:08.653Z,4.28
2022-11-10T08:45:37.650Z,8.45
2022-11-10T08:48:07.603Z,12.48
2022-11-10T08:50:37.893Z,24.55
2022-11-10T08:53:08.134Z,41.47
2022-11-10T08:55:36.484Z,50.30
2022-11-10T08:58:07.879Z,49.13
2022-11-10T09:00:36.820Z,46.47
2022-11-10T09:03:07.511Z,38.93
2022-11-10T09:05:37.670Z,34.85
2022-11-10T09:08:06.286Z,33.07
2022-11-10T09:10:37.251Z,30.50
2022-11-10T09:13:06.590Z,30.63
2022-11-10T09:15:36.365Z,26.33
2022-11-10T09:18:06.969Z,24.40
2022-11-10T09:20:38.188Z,25.17
2022-11-10T09:23:07.512Z,23.10
2022-11-10T09:25:36.159Z,21.20
2022-11-10T09:28:04.442Z,21.13
2022-11-10T09:30:32.961Z,22.25
2022-11-10T09:33:01.947Z,23.80
2022-11-10T09:35:30.545Z,24.02
2022-11-10T09:38:00.287Z,22.83
2022-11-10T09:40:39.875Z,23.15
2022-11-10T09:43:19.078Z,21.40
2022-11-10T09:45:51.244Z,20.50
2022-11-10T09:48:26.865Z,19.35
2022-11-10T09:50:59.202Z,19.17
2022-11-10T09:53:35.317Z,17.75
2022-11-10T09:56:05.446Z,17.23
2022-11-10T09:58:39.798Z,18.83
2022-11-10T10:01:29.408Z,16.90
2022-11-10T10:04:11.858Z,17.08
2022-11-10T10:07:09.452Z,14.83
2022-11-10T10:09:45.973Z,15.73
2022-11-10T10:12:24.806Z,16.27
2022-11-10T10:15:09.798Z,16.73
2022-11-10T10:17:46.157Z,15.87
2022-11-10T10:20:21.388Z,17.20
2022-11-10T10:23:05.260Z,17.20
2022-11-10T10:25:35.293Z,16.33
2022-11-10T10:28:13.070Z,15.90
2022-11-10T10:30:44.136Z,17.60
2022-11-10T10:33:17.767Z,17.92
2022-11-10T10:35:48.727Z,17.50
2022-11-10T10:38:23.241Z,16.27
2022-11-10T10:40:55.285Z,14.63
2022-11-10T10:43:23.612Z,14.85
2022-11-10T10:46:07.357Z,13.88
2022-11-10T10:48:36.067Z,12.75
2022-11-10T10:51:04.362Z,12.10
2022-11-10T10:53:32.689Z,12.77
2022-11-10T10:56:06.854Z,13.85
2022-11-10T10:58:38.058Z,14.65
2022-11-10T11:01:19.408Z,15.02
2022-11-10T11:03:50.064Z,12.00
2022-11-10T11:06:23.342Z,9.48
2022-11-10T11:09:00.912Z,7.45
2022-11-10T11:11:33.184Z,6.97
2022-11-10T11:14:21.155Z,6.13
2022-11-10T11:16:52.014Z,5.50
2022-11-10T11:19:22.662Z,5.18
2022-11-10T11:22:17.973Z,4.68
2022-11-10T11:24:52.524Z,4.50
2022-11-10T11:27:28.510Z,5.10
2022-11-10T11:30:05.776Z,4.50
2022-11-10T11:32:55.905Z,4.45
2022-11-10T11:35:32.676Z,5.18
2022-11-10T11:38:11.746Z,5.13
2022-11-10T11:40:49.377Z,4.57
2022-11-10T11:43:53.430Z,5.10
2022-11-10T11:46:32.302Z,4.68
2022-11-10T11:49:16.627Z,4.57
2022-11-10T11:51:55.285Z,4.22
2022-11-10T11:54:29.854Z,4.47
2022-11-10T11:57:08.999Z,4.72
2022-11-10T11:59:51.772Z,4.50
2022-11-10T12:02:33.688Z,4.55
2022-11-10T12:05:17.119Z,4.85
2022-11-10T12:07:55.383Z,4.60
2022-11-10T12:10:36.434Z,4.47
2022-11-10T12:13:23.936Z,4.50
2022-11-10T12:15:59.498Z,4.60
2022-11-10T12:18:33.793Z,4.50
2022-11-10T12:21:16.917Z,3.90
2022-11-10T12:24:10.123Z,3.60
2022-11-10T12:26:47.410Z,3.40
2022-11-10T12:29:24.911Z,3.88
2022-11-10T12:32:00.415Z,3.85
2022-11-10T12:34:34.964Z,3.72
2022-11-10T12:37:07.882Z,3.88
2022-11-10T12:39:43.659Z,3.42
2022-11-10T12:42:17.215Z,4.53
2022-11-10T12:45:02.653Z,4.30
2022-11-10T12:47:37.333Z,5.28
2022-11-10T12:50:21.913Z,7.15
2022-11-10T12:52:56.105Z,7.88
2022-11-10T12:55:32.770Z,8.38
2022-11-10T12:58:02.166Z,7.85
2022-11-10T13:00:32.614Z,7.72
2022-11-10T13:03:02.416Z,6.90
2022-11-10T13:05:37.664Z,6.05
2022-11-10T13:08:32.979Z,6.40
2022-11-10T13:11:07.864Z,6.97
2022-11-10T13:13:45.764Z,7.30
2022-11-10T13:16:50.136Z,6.57
2022-11-10T13:19:54.691Z,7.22
2022-11-10T13:22:37.067Z,8.68
2022-11-10T13:25:43.594Z,9.57
2022-11-10T13:28:12.864Z,10.07
2022-11-10T13:30:45.663Z,10.10
2022-11-10T13:33:37.548Z,10.15
2022-11-10T13:36:10.297Z,9.18
2022-11-10T13:38:40.644Z,8.40
2022-11-10T13:41:24.911Z,7.65
2022-11-10T13:43:55.025Z,7.82
2022-11-10T13:46:33.833Z,6.68
2022-11-10T13:49:21.544Z,5.95
2022-11-10T13:52:06.346Z,6.82
2022-11-10T13:55:03.940Z,5.75
2022-11-10T13:57:36.535Z,5.13
2022-11-10T14:00:25.423Z,4.05
2022-11-10T14:02:56.479Z,4.25
2022-11-10T14:06:04.354Z,3.78
2022-11-10T14:08:51.920Z,3.90
2022-11-10T14:11:25.480Z,4.40
2022-11-10T14:14:01.742Z,3.60
2022-11-10T14:16:33.173Z,4.18
2022-11-10T14:19:06.923Z,3.97
2022-11-10T14:21:42.608Z,4.10
2022-11-10T14:24:20.941Z,4.72
2022-11-10T14:26:53.752Z,3.72
2022-11-10T14:29:34.724Z,3.78
2022-11-10T14:32:05.571Z,4.53
2022-11-10T14:34:43.885Z,4.63
2022-11-10T14:37:24.365Z,4.57
2022-11-10T14:39:57.647Z,3.75
2022-11-10T14:42:28.642Z,3.97
2022-11-10T14:45:18.773Z,5.07
2022-11-10T14:47:54.204Z,5.43
2022-11-10T14:50:24.681Z,5.00
2022-11-10T14:52:56.748Z,5.60
2022-11-10T14:55:29.232Z,5.07
2022-11-10T14:58:03.219Z,4.88
2022-11-10T15:00:36.885Z,5.25
2022-11-10T15:03:07.691Z,5.38
2022-11-10T15:05:36.884Z,4.63
2022-11-10T15:08:06.824Z,4.40
2022-11-10T15:10:48.635Z,4.40
2022-11-10T15:13:37.700Z,4.07
2022-11-10T15:16:26.729Z,4.07
2022-11-10T15:18:57.605Z,3.45
2022-11-10T15:21:30.921Z,4.10
2022-11-10T15:24:03.774Z,3.97
2022-11-10T15:26:39.308Z,3.80
2022-11-10T15:29:08.158Z,4.05
2022-11-10T15:31:37.212Z,3.50
2022-11-10T15:34:06.921Z,3.70
2022-11-10T15:36:39.779Z,3.70
2022-11-10T15:39:20.135Z,4.00
2022-11-10T15:41:51.309Z,4.20
2022-11-10T15:44:21.721Z,4.10
2022-11-10T15:46:53.805Z,5.03
2022-11-10T15:49:25.353Z,7.25
2022-11-10T15:51:57.043Z,8.98
2022-11-10T15:54:28.312Z,10.18
2022-11-10T15:56:58.259Z,9.63
2022-11-10T15:59:26.615Z,8.85
2022-11-10T16:01:55.157Z,7.55
2022-11-10T16:04:23.622Z,6.30
2022-11-10T16:06:51.993Z,6.93
2022-11-10T16:09:20.403Z,6.65
2022-11-10T16:11:48.711Z,6.55
2022-11-10T16:14:19.097Z,6.20
2022-11-10T16:16:47.454Z,6.75
2022-11-10T16:19:15.737Z,7.25
2022-11-10T16:21:44.056Z,6.68
2022-11-10T16:24:12.415Z,5.80
2022-11-10T16:26:40.721Z,6.07
2022-11-10T16:29:13.884Z,6.30
2022-11-10T16:31:43.678Z,6.90
2022-11-10T16:34:14.986Z,6.82
2022-11-10T16:36:46.317Z,6.25
2022-11-10T16:39:17.113Z,6.87
2022-11-10T16:41:45.700Z,6.05
2022-11-10T16:44:15.975Z,5.67
2022-11-10T16:46:50.387Z,5.50
2022-11-10T16:49:26.430Z,5.72
2022-11-10T16:51:55.001Z,8.40
2022-11-10T16:54:23.539Z,8.32
2022-11-10T16:56:51.884Z,9.70
2022-11-10T16:59:20.197Z,9.68
2022-11-10T17:01:50.588Z,9.00
2022-11-10T17:04:18.916Z,9.00
2022-11-10T17:06:47.297Z,15.45
2022-11-10T17:09:19.092Z,48.97
2022-11-10T17:11:47.480Z,54.47
2022-11-10T17:14:16.682Z,26.37
2022-11-10T17:16:46.684Z,17.75
2022-11-10T17:19:25.638Z,12.50
2022-11-10T17:21:55.064Z,9.05
2022-11-10T17:24:23.469Z,6.60
2022-11-10T17:26:52.017Z,5.75
2022-11-10T17:29:22.155Z,5.40
2022-11-10T17:31:51.465Z,5.43
2022-11-10T17:34:19.836Z,5.78
2022-11-10T17:36:51.104Z,5.85
2022-11-10T17:39:20.146Z,6.55
2022-11-10T17:41:48.715Z,6.07
2022-11-10T17:44:18.246Z,6.38
2022-11-10T17:46:46.787Z,6.38
2022-11-10T17:49:15.074Z,5.95
2022-11-10T17:51:44.655Z,5.65
2022-11-10T17:54:15.848Z,4.85
2022-11-10T17:56:44.300Z,4.32
2022-11-10T17:59:12.638Z,4.35
2022-11-10T18:01:41.017Z,4.68
2022-11-10T18:04:12.905Z,4.55
2022-11-10T18:06:41.203Z,4.82
2022-11-10T18:09:10.490Z,4.10
2022-11-10T18:11:40.368Z,4.78
2022-11-10T18:14:09.324Z,4.57
2022-11-10T18:16:38.022Z,4.78
2022-11-10T18:19:13.710Z,5.10
2022-11-10T18:21:42.507Z,4.82
2022-11-10T18:24:11.625Z,5.57
2022-11-10T18:26:42.955Z,4.47
2022-11-10T18:29:11.432Z,4.85
2022-11-10T18:31:39.710Z,8.05
2022-11-10T18:34:08.298Z,7.63
2022-11-10T18:36:36.667Z,12.25
2022-11-10T18:39:05.148Z,8.20
2022-11-10T18:41:52.541Z,5.20
2022-11-10T18:44:22.680Z,3.58
2022-11-10T18:46:53.172Z,2.92
2022-11-10T18:49:21.537Z,2.78
2022-11-10T18:51:50.599Z,2.30
2022-11-10T18:54:18.987Z,2.63
2022-11-10T18:56:47.300Z,3.30
2022-11-10T18:59:15.789Z,4.10
2022-11-10T19:01:45.799Z,2.90
2022-11-10T19:04:15.065Z,4.53
2022-11-10T19:06:44.316Z,6.82
2022-11-10T19:09:13.274Z,7.35
2022-11-10T19:11:41.940Z,7.95
2022-11-10T19:14:10.499Z,7.03
2022-11-10T19:16:39.061Z,6.72
2022-11-10T19:19:08.907Z,7.10
2022-11-10T19:21:37.494Z,6.10
2022-11-10T19:24:06.736Z,6.80
2022-11-10T19:26:35.385Z,7.32
2022-11-10T19:29:03.932Z,7.15
2022-11-10T19:31:32.504Z,7.90
2022-11-10T19:34:01.103Z,8.10
2022-11-10T19:36:31.120Z,7.70
2022-11-10T19:38:59.771Z,7.47
2022-11-10T19:41:30.265Z,6.83
2022-11-10T19:44:00.861Z,7.57
2022-11-10T19:46:30.843Z,7.47
2022-11-10T19:48:59.559Z,8.07
2022-11-10T19:51:28.689Z,7.47
2022-11-10T19:54:01.472Z,8.40
2022-11-10T19:56:32.146Z,8.50
2022-11-10T19:59:01.446Z,8.47
2022-11-10T20:01:32.211Z,7.50
2022-11-10T20:04:02.929Z,7.87
2022-11-10T20:06:31.323Z,8.20
2022-11-10T20:09:01.160Z,6.73
2022-11-10T20:11:29.468Z,5.90
2022-11-10T20:14:00.517Z,6.00
2022-11-10T20:16:28.910Z,4.37
2022-11-10T20:18:57.268Z,3.37
2022-11-10T20:21:25.633Z,2.87
2022-11-10T20:23:54.993Z,4.10
2022-11-10T20:26:25.795Z,4.60
2022-11-10T20:28:54.288Z,4.73
2022-11-10T20:31:26.045Z,5.90
2022-11-10T20:33:56.049Z,6.10
2022-11-10T20:36:26.988Z,5.03
2022-11-10T20:38:56.615Z,5.00
2022-11-10T20:41:28.847Z,4.70
2022-11-10T20:43:57.220Z,4.43
2022-11-10T20:46:53.969Z,5.47
2022-11-10T20:49:13.896Z,6.33
2022-11-10T20:51:43.617Z,7.73
2022-11-10T20:54:12.160Z,7.78
2022-11-10T20:56:41.894Z,6.10
2022-11-10T20:59:10.413Z,5.70
2022-11-10T21:01:38.744Z,6.37
2022-11-10T21:04:07.303Z,5.60
2022-11-10T21:06:35.684Z,4.10
2022-11-10T21:09:04.490Z,3.95
2022-11-10T21:11:46.730Z,10.87
2022-11-10T21:14:16.901Z,11.05
2022-11-10T21:16:45.354Z,7.53
2022-11-10T21:19:13.654Z,5.53
2022-11-10T21:21:42.054Z,3.43
2022-11-10T21:24:11.297Z,2.50
2022-11-10T21:26:41.413Z,2.30
2022-11-10T21:29:11.693Z,2.87
2022-11-10T21:31:42.118Z,4.90
2022-11-10T21:34:10.950Z,6.17
2022-11-10T21:36:39.906Z,7.18
2022-11-10T21:39:08.576Z,6.30
2022-11-10T21:41:37.443Z,6.53
2022-11-10T21:44:06.255Z,6.87
2022-11-10T21:46:34.778Z,6.77
2022-11-10T21:49:07.878Z,6.80
2022-11-10T21:51:36.713Z,6.87
2022-11-10T21:54:05.237Z,7.40
2022-11-10T21:56:33.603Z,7.77
2022-11-10T21:59:02.003Z,7.47
2022-11-10T22:01:30.561Z,8.80
2022-11-10T22:03:58.980Z,8.93
2022-11-10T22:06:48.802Z,8.97
2022-11-10T22:09:38.181Z,7.57
2022-11-10T22:12:26.202Z,7.00
2022-11-10T22:15:11.670Z,7.07
2022-11-10T22:17:57.122Z,7.43
2022-11-10T22:20:25.500Z,6.67
2022-11-10T22:22:55.217Z,6.33
2022-11-10T22:25:23.489Z,6.50
2022-11-10T22:27:51.822Z,7.00
2022-11-10T22:30:20.175Z,5.90
2022-11-10T22:32:48.436Z,6.93
2022-11-10T22:35:30.740Z,6.20
2022-11-10T22:38:06.636Z,6.03
2022-11-10T22:40:54.419Z,6.20
2022-11-10T22:43:40.602Z,6.30
2022-11-10T22:46:09.210Z,6.13
2022-11-10T22:48:37.537Z,6.10
2022-11-10T22:51:05.922Z,6.23
2022-11-10T22:53:38.486Z,6.10
2022-11-10T22:56:07.130Z,5.50
2022-11-10T22:58:35.341Z,5.13
2022-11-10T23:01:07.591Z,5.73
2022-11-10T23:03:36.476Z,5.93
2022-11-10T23:06:05.575Z,5.87
2022-11-10T23:08:35.543Z,6.13
2022-11-10T23:11:05.364Z,5.30
2022-11-10T23:13:35.630Z,5.63
2022-11-10T23:16:05.274Z,5.63
2022-11-10T23:18:34.091Z,5.70
2022-11-10T23:21:03.948Z,5.40
2022-11-10T23:23:36.301Z,5.50
2022-11-10T23:26:06.539Z,5.57
2022-11-10T23:28:35.892Z,6.03
2022-11-10T23:31:05.449Z,5.37
2022-11-10T23:33:34.285Z,5.43
2022-11-10T23:36:03.245Z,5.20
2022-11-10T23:38:32.546Z,5.67
2022-11-10T23:41:03.449Z,4.80
2022-11-10T23:43:32.236Z,5.00
2022-11-10T23:46:06.957Z,5.00
2022-11-10T23:48:36.074Z,4.87
2022-11-10T23:51:05.184Z,4.93
2022-11-10T23:53:33.827Z,5.03
2022-11-10T23:56:05.733Z,5.00
2022-11-10T23:58:34.615Z,5.00
